sensor_id;sensor_type;location;lat;lon;timestamp;temperature;humidity
71754;DHT22;59593;51.716;7.016;2023-07-24T00:00:22;18.70;99.90
71754;DHT22;59593;51.716;7.016;2023-07-24T00:02:53;18.80;99.90
71754;DHT22;59593;51.716;7.016;2023-07-24T00:05:21;18.80;99.90
71754;DHT22;59593;51.716;7.016;2023-07-24T00:07:49;18.70;99.90
71754;DHT22;59593;51.716;7.016;2023-07-24T00:10:17;18.70;99.90
71754;DHT22;59593;51.716;7.016;2023-07-24T00:12:43;18.80;99.90
71754;DHT22;59593;51.716;7.016;2023-07-24T00:15:12;18.70;99.90
71754;DHT22;59593;51.716;7.016;2023-07-24T00:17:38;18.60;99.90
71754;DHT22;59593;51.716;7.016;2023-07-24T00:20:07;18.60;99.90
71754;DHT22;59593;51.716;7.016;2023-07-24T00:22:37;18.60;99.90
71754;DHT22;59593;51.716;7.016;2023-07-24T00:25:07;18.50;99.90
71754;DHT22;59593;51.716;7.016;2023-07-24T00:27:38;18.50;99.90
71754;DHT22;59593;51.716;7.016;2023-07-24T00:30:04;18.50;99.90
71754;DHT22;59593;51.716;7.016;2023-07-24T00:32:33;18.50;99.90
71754;DHT22;59593;51.716;7.016;2023-07-24T00:35:03;18.50;99.90
71754;DHT22;59593;51.716;7.016;2023-07-24T00:37:37;18.50;99.90
71754;DHT22;59593;51.716;7.016;2023-07-24T00:40:06;18.50;99.90
71754;DHT22;59593;51.716;7.016;2023-07-24T00:42:35;18.40;99.90
71754;DHT22;59593;51.716;7.016;2023-07-24T00:45:00;18.40;99.90
71754;DHT22;59593;51.716;7.016;2023-07-24T00:47:36;18.40;99.90
71754;DHT22;59593;51.716;7.016;2023-07-24T00:50:09;18.40;99.90
71754;DHT22;59593;51.716;7.016;2023-07-24T00:52:45;18.40;99.90
71754;DHT22;59593;51.716;7.016;2023-07-24T00:55:13;18.50;99.90
71754;DHT22;59593;51.716;7.016;2023-07-24T00:57:41;18.50;99.90
71754;DHT22;59593;51.716;7.016;2023-07-24T01:00:07;18.40;99.90
71754;DHT22;59593;51.716;7.016;2023-07-24T01:02:34;18.40;99.90
71754;DHT22;59593;51.716;7.016;2023-07-24T01:05:03;18.40;99.90
71754;DHT22;59593;51.716;7.016;2023-07-24T01:07:33;18.50;99.90
71754;DHT22;59593;51.716;7.016;2023-07-24T01:09:59;18.40;99.90
71754;DHT22;59593;51.716;7.016;2023-07-24T01:12:49;18.30;99.90
71754;DHT22;59593;51.716;7.016;2023-07-24T01:15:27;18.40;99.90
71754;DHT22;59593;51.716;7.016;2023-07-24T01:17:59;18.40;99.90
71754;DHT22;59593;51.716;7.016;2023-07-24T01:20:29;18.50;99.90
71754;DHT22;59593;51.716;7.016;2023-07-24T01:23:18;18.40;99.90
71754;DHT22;59593;51.716;7.016;2023-07-24T01:26:00;18.50;99.90
71754;DHT22;59593;51.716;7.016;2023-07-24T01:28:32;18.30;99.90
71754;DHT22;59593;51.716;7.016;2023-07-24T01:30:58;18.30;99.90
71754;DHT22;59593;51.716;7.016;2023-07-24T01:33:29;18.30;99.90
71754;DHT22;59593;51.716;7.016;2023-07-24T01:36:01;18.30;99.90
71754;DHT22;59593;51.716;7.016;2023-07-24T01:38:28;18.40;99.90
71754;DHT22;59593;51.716;7.016;2023-07-24T01:40:57;18.50;99.90
71754;DHT22;59593;51.716;7.016;2023-07-24T01:43:24;18.40;99.90
71754;DHT22;59593;51.716;7.016;2023-07-24T01:45:51;18.40;99.90
71754;DHT22;59593;51.716;7.016;2023-07-24T01:48:17;18.40;99.90
71754;DHT22;59593;51.716;7.016;2023-07-24T01:50:48;18.40;99.90
71754;DHT22;59593;51.716;7.016;2023-07-24T01:53:14;18.40;99.90
71754;DHT22;59593;51.716;7.016;2023-07-24T01:55:39;18.40;99.90
71754;DHT22;59593;51.716;7.016;2023-07-24T01:58:07;18.30;99.90
71754;DHT22;59593;51.716;7.016;2023-07-24T02:00:33;18.50;99.90
71754;DHT22;59593;51.716;7.016;2023-07-24T02:02:59;18.40;99.90
71754;DHT22;59593;51.716;7.016;2023-07-24T02:05:27;18.30;99.90
71754;DHT22;59593;51.716;7.016;2023-07-24T02:07:56;18.30;99.90
71754;DHT22;59593;51.716;7.016;2023-07-24T02:10:21;18.20;99.90
71754;DHT22;59593;51.716;7.016;2023-07-24T02:12:47;18.20;99.90
71754;DHT22;59593;51.716;7.016;2023-07-24T02:15:13;18.20;99.90
71754;DHT22;59593;51.716;7.016;2023-07-24T02:17:41;18.20;99.90
71754;DHT22;59593;51.716;7.016;2023-07-24T02:20:10;18.20;99.90
71754;DHT22;59593;51.716;7.016;2023-07-24T02:22:36;18.20;99.90
71754;DHT22;59593;51.716;7.016;2023-07-24T02:25:02;18.20;99.90
71754;DHT22;59593;51.716;7.016;2023-07-24T02:27:30;18.40;99.90
71754;DHT22;59593;51.716;7.016;2023-07-24T02:29:56;18.40;99.90
71754;DHT22;59593;51.716;7.016;2023-07-24T02:32:22;18.30;99.90
71754;DHT22;59593;51.716;7.016;2023-07-24T02:34:49;18.30;99.90
71754;DHT22;59593;51.716;7.016;2023-07-24T02:37:15;18.30;99.90
71754;DHT22;59593;51.716;7.016;2023-07-24T02:39:43;18.40;99.90
71754;DHT22;59593;51.716;7.016;2023-07-24T02:42:09;18.50;99.90
71754;DHT22;59593;51.716;7.016;2023-07-24T02:44:35;18.50;99.90
71754;DHT22;59593;51.716;7.016;2023-07-24T02:47:04;18.50;99.90
71754;DHT22;59593;51.716;7.016;2023-07-24T02:49:30;18.50;99.90
71754;DHT22;59593;51.716;7.016;2023-07-24T02:52:16;18.40;99.90
71754;DHT22;59593;51.716;7.016;2023-07-24T02:54:41;18.40;99.90
71754;DHT22;59593;51.716;7.016;2023-07-24T02:57:07;18.40;99.90
71754;DHT22;59593;51.716;7.016;2023-07-24T02:59:38;18.50;99.90
71754;DHT22;59593;51.716;7.016;2023-07-24T03:02:06;18.50;99.90
71754;DHT22;59593;51.716;7.016;2023-07-24T03:04:32;18.60;99.90
71754;DHT22;59593;51.716;7.016;2023-07-24T03:06:58;18.60;99.90
71754;DHT22;59593;51.716;7.016;2023-07-24T03:09:28;18.50;99.90
71754;DHT22;59593;51.716;7.016;2023-07-24T03:11:54;18.60;99.90
71754;DHT22;59593;51.716;7.016;2023-07-24T03:14:19;18.50;99.90
71754;DHT22;59593;51.716;7.016;2023-07-24T03:16:45;18.50;99.90
71754;DHT22;59593;51.716;7.016;2023-07-24T03:19:16;18.60;99.90
71754;DHT22;59593;51.716;7.016;2023-07-24T03:21:45;18.50;99.90
71754;DHT22;59593;51.716;7.016;2023-07-24T03:24:20;18.60;99.90
71754;DHT22;59593;51.716;7.016;2023-07-24T03:26:53;18.60;99.90
71754;DHT22;59593;51.716;7.016;2023-07-24T03:29:34;18.60;99.90
71754;DHT22;59593;51.716;7.016;2023-07-24T03:32:34;18.60;99.90
71754;DHT22;59593;51.716;7.016;2023-07-24T03:35:29;18.60;99.90
71754;DHT22;59593;51.716;7.016;2023-07-24T03:38:33;18.60;99.90
71754;DHT22;59593;51.716;7.016;2023-07-24T15:13:36;22.50;99.90
71754;DHT22;59593;51.716;7.016;2023-07-24T15:16:21;22.50;99.90
71754;DHT22;59593;51.716;7.016;2023-07-24T15:18:52;22.20;99.90
71754;DHT22;59593;51.716;7.016;2023-07-24T15:25:06;21.50;99.90
71754;DHT22;59593;51.716;7.016;2023-07-24T15:41:46;20.80;99.90
71754;DHT22;59593;51.716;7.016;2023-07-24T15:44:14;20.70;99.90
71754;DHT22;59593;51.716;7.016;2023-07-24T15:46:40;20.50;99.90
71754;DHT22;59593;51.716;7.016;2023-07-24T15:49:11;20.40;99.90
71754;DHT22;59593;51.716;7.016;2023-07-24T15:51:37;20.40;99.90
71754;DHT22;59593;51.716;7.016;2023-07-24T15:57:36;20.60;99.90
71754;DHT22;59593;51.716;7.016;2023-07-24T16:00:27;21.10;99.90
71754;DHT22;59593;51.716;7.016;2023-07-24T16:03:06;21.20;99.90
71754;DHT22;59593;51.716;7.016;2023-07-24T16:18:41;21.40;99.90
71754;DHT22;59593;51.716;7.016;2023-07-24T16:21:06;21.30;99.90
71754;DHT22;59593;51.716;7.016;2023-07-24T16:26:51;21.40;99.90
71754;DHT22;59593;51.716;7.016;2023-07-24T16:29:41;21.50;99.90
71754;DHT22;59593;51.716;7.016;2023-07-24T16:35:00;21.60;99.90
71754;DHT22;59593;51.716;7.016;2023-07-24T16:37:33;21.40;99.90
71754;DHT22;59593;51.716;7.016;2023-07-24T16:40:09;21.20;99.90
71754;DHT22;59593;51.716;7.016;2023-07-24T16:42:39;20.80;99.90
71754;DHT22;59593;51.716;7.016;2023-07-24T16:45:05;20.40;99.90
71754;DHT22;59593;51.716;7.016;2023-07-24T16:50:56;20.20;99.90
71754;DHT22;59593;51.716;7.016;2023-07-24T16:53:22;20.20;99.90
71754;DHT22;59593;51.716;7.016;2023-07-24T16:56:09;20.20;99.90
71754;DHT22;59593;51.716;7.016;2023-07-24T17:01:36;20.00;99.90
71754;DHT22;59593;51.716;7.016;2023-07-24T17:04:04;19.90;99.90
71754;DHT22;59593;51.716;7.016;2023-07-24T17:06:42;19.80;99.90
71754;DHT22;59593;51.716;7.016;2023-07-24T17:09:28;19.70;99.90
71754;DHT22;59593;51.716;7.016;2023-07-24T17:11:57;19.50;99.90
71754;DHT22;59593;51.716;7.016;2023-07-24T17:14:49;19.50;99.90
71754;DHT22;59593;51.716;7.016;2023-07-24T17:17:23;19.40;99.90
71754;DHT22;59593;51.716;7.016;2023-07-24T17:19:56;19.30;99.90
71754;DHT22;59593;51.716;7.016;2023-07-24T17:22:37;19.30;99.90
71754;DHT22;59593;51.716;7.016;2023-07-24T17:25:21;19.30;99.90
71754;DHT22;59593;51.716;7.016;2023-07-24T17:27:47;19.20;99.90
71754;DHT22;59593;51.716;7.016;2023-07-24T17:30:20;19.20;99.90
71754;DHT22;59593;51.716;7.016;2023-07-24T18:05:46;18.40;99.90
71754;DHT22;59593;51.716;7.016;2023-07-24T18:19:28;18.00;99.90
71754;DHT22;59593;51.716;7.016;2023-07-24T18:22:06;18.00;99.90
71754;DHT22;59593;51.716;7.016;2023-07-24T18:28:08;18.00;99.90
71754;DHT22;59593;51.716;7.016;2023-07-24T21:35:06;15.40;99.90
